Magne Viking — OURK2 — position and weather

sailwx.info

Track history (hours):
 
Tides and Currents Weather Stations Pressure Air Temp Water Temp Dewpoint Dewpoint Depression Visibility Wind Speed Wind Dir Waves Ship Positions

Magne Viking

Last reported at 2015-Sep-03 09:17 UTC. Time now 2015-Sep-03 17:17 UTC.
Position N 57°07' W 001°54'.

Length 85 m; draft 6.4 m.

Type: Tug. MMSI: 219375000.

Date/timePositionNaut miles runAvg speedWind from/ knotsBaromVisibWave heightAir tempDewpointWater temp
2015-Sep-03 09:17N 57°07' W 001°54'2 0.2
2015-Sep-03 02:29N 57°06' W 001°57'4 4.1
2015-Sep-03 01:25N 57°11' W 001°57'2 0.6
2015-Sep-02 22:28N 57°12' W 001°60'0 0.0
2015-Sep-02 21:29N 57°12' W 001°60'0 0.0
2015-Sep-02 20:18N 57°12' W 001°60'0 0.0
2015-Sep-02 19:24N 57°12' W 001°60'0 0.0
2015-Sep-02 07:09N 57°12' W 001°59'0 0.1
2015-Sep-02 06:33N 57°12' W 001°59'0 0.0
2015-Sep-02 04:28N 57°12' W 001°60'0 0.0
2015-Sep-02 01:24N 57°12' W 001°60'0 0.0
2015-Sep-02 00:31N 57°12' W 001°60'0 0.0
2015-Sep-01 22:26N 57°12' W 001°60'0 0.0
2015-Sep-01 19:16N 57°12' W 001°60'0 0.1
2015-Sep-01 18:23N 57°12' W 001°60'0 0.0
2015-Sep-01 16:13N 57°12' W 001°60'0 0.0
2015-Sep-01 05:20N 57°12' W 001°59'0 0.0
2015-Aug-31 15:23N 57°12' W 001°60'0 0.0
2015-Aug-30 16:32N 57°12' W 001°60'  
2015-Aug-28 09:22N 57°11' W 002°00'3 4.3
2015-Aug-28 08:34N 57°09' W 002°05'0 0.0
2015-Aug-28 07:31N 57°09' W 002°05'0 0.0
2015-Aug-28 06:31N 57°09' W 002°05'0 0.0
2015-Aug-28 05:32N 57°09' W 002°05'0 0.0
2015-Aug-28 04:33N 57°09' W 002°05'0 0.0
2015-Aug-28 03:33N 57°09' W 002°05'0 0.0
2015-Aug-28 02:31N 57°09' W 002°05'0 0.0
2015-Aug-28 01:32N 57°09' W 002°05'0 0.0
2015-Aug-28 00:33N 57°09' W 002°05'0 0.0
2015-Aug-27 23:33N 57°09' W 002°05'0 0.0
2015-Aug-27 22:31N 57°09' W 002°05'0 0.0
2015-Aug-27 21:33N 57°09' W 002°05'0 0.1
2015-Aug-27 20:28N 57°09' W 002°05'0 0.0
2015-Aug-27 18:29N 57°09' W 002°05'0 0.0
2015-Aug-27 17:24N 57°09' W 002°05'0 0.0
2015-Aug-27 16:25N 57°09' W 002°05'0 0.0
2015-Aug-27 15:19N 57°09' W 002°05'0 0.4
2015-Aug-27 14:34N 57°08' W 002°04'19 9.4
2015-Aug-27 12:33N 57°24' W 001°45'1110.9
2015-Aug-27 11:34N 57°33' W 001°34'1211.2
2015-Aug-27 10:28N 57°44' W 001°23'  
Track history (hours):
 
Tides and Currents Weather Stations Pressure Air Temp Water Temp Dewpoint Dewpoint Depression Visibility Wind Speed Wind Dir Waves Ship Positions

Magne Viking

Last reported at 2015-Sep-03 09:17 UTC. Time now 2015-Sep-03 17:17 UTC.
Position N 57°07' W 001°54'.

Length 85 m; draft 6.4 m.

Type: Tug. MMSI: 219375000.

Date/timePositionNaut miles runAvg speedWind from/ knotsBaromVisibWave heightAir tempDewpointWater temp
2015-Sep-03 09:17N 57°07' W 001°54'2 0.2
2015-Sep-03 02:29N 57°06' W 001°57'4 4.1
2015-Sep-03 01:25N 57°11' W 001°57'2 0.6
2015-Sep-02 22:28N 57°12' W 001°60'0 0.0
2015-Sep-02 21:29N 57°12' W 001°60'0 0.0
2015-Sep-02 20:18N 57°12' W 001°60'0 0.0
2015-Sep-02 19:24N 57°12' W 001°60'0 0.0
2015-Sep-02 07:09N 57°12' W 001°59'0 0.1
2015-Sep-02 06:33N 57°12' W 001°59'0 0.0
2015-Sep-02 04:28N 57°12' W 001°60'0 0.0
2015-Sep-02 01:24N 57°12' W 001°60'0 0.0
2015-Sep-02 00:31N 57°12' W 001°60'0 0.0
2015-Sep-01 22:26N 57°12' W 001°60'0 0.0
2015-Sep-01 19:16N 57°12' W 001°60'0 0.1
2015-Sep-01 18:23N 57°12' W 001°60'0 0.0
2015-Sep-01 16:13N 57°12' W 001°60'0 0.0
2015-Sep-01 05:20N 57°12' W 001°59'0 0.0
2015-Aug-31 15:23N 57°12' W 001°60'0 0.0
2015-Aug-30 16:32N 57°12' W 001°60'  
2015-Aug-28 09:22N 57°11' W 002°00'3 4.3
2015-Aug-28 08:34N 57°09' W 002°05'0 0.0
2015-Aug-28 07:31N 57°09' W 002°05'0 0.0
2015-Aug-28 06:31N 57°09' W 002°05'0 0.0
2015-Aug-28 05:32N 57°09' W 002°05'0 0.0
2015-Aug-28 04:33N 57°09' W 002°05'0 0.0
2015-Aug-28 03:33N 57°09' W 002°05'0 0.0
2015-Aug-28 02:31N 57°09' W 002°05'0 0.0
2015-Aug-28 01:32N 57°09' W 002°05'0 0.0
2015-Aug-28 00:33N 57°09' W 002°05'0 0.0
2015-Aug-27 23:33N 57°09' W 002°05'0 0.0
2015-Aug-27 22:31N 57°09' W 002°05'0 0.0
2015-Aug-27 21:33N 57°09' W 002°05'0 0.1
2015-Aug-27 20:28N 57°09' W 002°05'0 0.0
2015-Aug-27 18:29N 57°09' W 002°05'0 0.0
2015-Aug-27 17:24N 57°09' W 002°05'0 0.0
2015-Aug-27 16:25N 57°09' W 002°05'0 0.0
2015-Aug-27 15:19N 57°09' W 002°05'0 0.4
2015-Aug-27 14:34N 57°08' W 002°04'19 9.4
2015-Aug-27 12:33N 57°24' W 001°45'1110.9
2015-Aug-27 11:34N 57°33' W 001°34'1211.2
2015-Aug-27 10:28N 57°44' W 001°23'  

Dump ship's entire track history